createdAt,value
2018-10-01T00:01:23.999Z,11.30
2018-10-01T00:03:51.187Z,11.20
2018-10-01T00:06:18.331Z,11.20
2018-10-01T00:08:45.511Z,11.20
2018-10-01T00:11:12.674Z,11.10
2018-10-01T00:13:39.883Z,11.10
2018-10-01T00:16:07.239Z,11.20
2018-10-01T00:18:34.747Z,11.20
2018-10-01T00:21:07.657Z,11.40
2018-10-01T00:23:34.937Z,11.20
2018-10-01T00:26:02.117Z,11.10
2018-10-01T00:28:29.392Z,11.00
2018-10-01T00:30:56.747Z,11.10
2018-10-01T00:33:23.910Z,11.40
2018-10-01T00:35:51.070Z,11.40
2018-10-01T00:38:18.324Z,11.50
2018-10-01T00:40:45.420Z,11.50
2018-10-01T00:43:19.523Z,11.40
2018-10-01T00:45:46.672Z,11.40
2018-10-01T00:48:13.850Z,11.40
2018-10-01T00:50:41.023Z,11.40
2018-10-01T00:53:08.183Z,11.50
2018-10-01T00:55:35.372Z,11.60
2018-10-01T00:58:02.674Z,11.70
2018-10-01T01:00:29.851Z,11.80
2018-10-01T01:02:57.098Z,11.80
2018-10-01T01:05:24.268Z,11.90
2018-10-01T01:07:51.582Z,12.00
2018-10-01T01:10:18.782Z,12.10
2018-10-01T01:12:45.955Z,12.20
2018-10-01T01:15:13.103Z,12.20
2018-10-01T01:17:40.258Z,12.40
2018-10-01T01:20:07.451Z,12.50
2018-10-01T01:22:34.638Z,12.50
2018-10-01T01:25:01.826Z,12.50
2018-10-01T01:27:28.987Z,12.30
2018-10-01T01:29:56.138Z,12.30
2018-10-01T01:32:23.330Z,12.20
2018-10-01T01:34:50.502Z,12.30
2018-10-01T01:37:17.695Z,12.20
2018-10-01T01:39:45.055Z,12.20
2018-10-01T01:42:12.206Z,12.20
2018-10-01T01:44:39.379Z,12.30
2018-10-01T01:47:06.571Z,12.30
2018-10-01T01:49:33.751Z,12.30
2018-10-01T01:52:00.919Z,12.30
2018-10-01T01:54:28.083Z,12.20
2018-10-01T01:57:01.942Z,12.20
2018-10-01T01:59:29.111Z,12.10
2018-10-01T02:01:56.275Z,12.10
2018-10-01T02:04:23.455Z,12.10
2018-10-01T02:06:50.609Z,12.00
2018-10-01T02:09:17.770Z,11.90
2018-10-01T02:11:44.930Z,11.80
2018-10-01T02:14:12.110Z,11.80
2018-10-01T02:16:39.263Z,11.70
2018-10-01T02:19:06.464Z,11.80
2018-10-01T02:21:33.612Z,11.80
2018-10-01T02:24:00.800Z,11.80
2018-10-01T02:26:27.968Z,11.90
2018-10-01T02:28:55.134Z,11.90
2018-10-01T02:31:22.384Z,11.90
2018-10-01T02:33:49.554Z,11.90
2018-10-01T02:36:16.741Z,11.80
2018-10-01T02:38:43.923Z,11.80
2018-10-01T02:41:11.098Z,11.90
2018-10-01T02:43:38.348Z,11.90
2018-10-01T02:46:05.761Z,11.90
2018-10-01T02:48:32.941Z,11.80
2018-10-01T02:51:00.596Z,11.80
2018-10-01T02:53:33.650Z,11.70
2018-10-01T02:56:00.844Z,11.80
2018-10-01T02:58:28.007Z,11.80
2018-10-01T03:00:55.171Z,11.70
2018-10-01T03:03:22.392Z,11.80
2018-10-01T03:05:49.562Z,11.80
2018-10-01T03:08:16.799Z,11.80
2018-10-01T03:10:43.985Z,11.90
2018-10-01T03:13:11.175Z,11.80
2018-10-01T03:15:38.339Z,11.70
2018-10-01T03:18:05.998Z,11.60
2018-10-01T03:20:33.167Z,11.70
2018-10-01T03:23:00.335Z,11.70
2018-10-01T03:25:27.482Z,11.60
2018-10-01T03:27:54.635Z,11.60
2018-10-01T03:30:21.819Z,11.60
2018-10-01T03:32:48.967Z,11.60
2018-10-01T03:35:16.138Z,11.60
2018-10-01T03:37:43.328Z,11.60
2018-10-01T03:40:10.584Z,11.70
2018-10-01T03:42:37.667Z,11.70
2018-10-01T03:45:04.895Z,11.80
2018-10-01T03:47:32.106Z,11.70
2018-10-01T03:49:59.219Z,11.70
2018-10-01T03:52:26.374Z,11.80
2018-10-01T03:54:53.535Z,11.80
2018-10-01T03:57:20.684Z,11.80
2018-10-01T03:59:47.859Z,11.80
2018-10-01T04:02:15.031Z,11.80
2018-10-01T04:04:42.207Z,11.90
2018-10-01T04:07:09.351Z,11.90
2018-10-01T04:09:36.519Z,11.80
2018-10-01T04:12:03.720Z,11.80
2018-10-01T04:14:30.892Z,11.90
2018-10-01T04:16:58.066Z,11.80
2018-10-01T04:19:25.255Z,11.80
2018-10-01T04:21:52.415Z,11.80
2018-10-01T04:24:19.591Z,11.70
2018-10-01T04:29:20.734Z,11.80
2018-10-01T04:31:47.895Z,11.70
2018-10-01T04:34:15.487Z,11.70
2018-10-01T04:36:42.659Z,11.70
2018-10-01T04:39:12.116Z,11.70
2018-10-01T04:41:39.866Z,11.70
2018-10-01T04:44:07.235Z,11.90
2018-10-01T04:46:34.824Z,11.80
2018-10-01T04:49:02.062Z,11.70
2018-10-01T04:51:29.207Z,11.70
2018-10-01T04:53:56.374Z,11.60
2018-10-01T04:56:23.531Z,11.60
2018-10-01T04:58:57.527Z,11.70
2018-10-01T05:01:24.688Z,11.70
2018-10-01T05:03:51.866Z,11.80
2018-10-01T05:06:19.035Z,11.80
2018-10-01T05:08:46.211Z,11.80
2018-10-01T05:11:13.375Z,11.70
2018-10-01T05:13:41.227Z,11.70
2018-10-01T05:16:08.383Z,11.60
2018-10-01T05:18:35.567Z,11.60
2018-10-01T05:21:02.743Z,11.60
2018-10-01T05:23:29.895Z,11.50
2018-10-01T05:25:57.069Z,11.50
2018-10-01T05:28:24.263Z,11.60
2018-10-01T05:30:51.419Z,11.60
2018-10-01T05:33:18.583Z,11.50
2018-10-01T05:35:45.763Z,11.40
2018-10-01T05:38:12.952Z,11.30
2018-10-01T05:40:40.111Z,11.30
2018-10-01T05:43:07.275Z,11.40
2018-10-01T05:45:34.434Z,11.50
2018-10-01T05:48:01.591Z,11.60
2018-10-01T05:50:28.759Z,11.50
2018-10-01T05:52:55.955Z,11.50
2018-10-01T05:55:23.260Z,11.50
2018-10-01T05:57:50.552Z,11.50
2018-10-01T06:00:17.694Z,11.60
2018-10-01T06:02:45.120Z,11.60
2018-10-01T06:05:12.339Z,11.50
2018-10-01T06:07:39.499Z,11.40
2018-10-01T06:10:06.752Z,11.40
2018-10-01T06:12:33.908Z,11.40
2018-10-01T06:15:01.071Z,11.40
2018-10-01T06:17:28.314Z,11.50
2018-10-01T06:19:55.523Z,11.60
2018-10-01T06:22:22.687Z,11.60
2018-10-01T06:24:49.855Z,11.70
2018-10-01T06:27:17.039Z,11.70
2018-10-01T06:29:44.216Z,11.80
2018-10-01T06:32:11.370Z,11.80
2018-10-01T06:34:39.563Z,11.90
2018-10-01T06:37:06.743Z,11.90
2018-10-01T06:39:33.956Z,11.90
2018-10-01T06:42:01.168Z,12.00
2018-10-01T06:44:28.266Z,12.00
2018-10-01T06:46:55.479Z,12.00
2018-10-01T06:49:22.646Z,12.10
2018-10-01T06:51:49.823Z,12.20
2018-10-01T06:54:16.998Z,12.20
2018-10-01T06:56:44.159Z,12.20
2018-10-01T06:59:11.319Z,12.20
2018-10-01T07:01:38.479Z,12.20
2018-10-01T07:04:05.655Z,12.00
2018-10-01T07:06:32.885Z,12.00
2018-10-01T07:08:59.997Z,11.90
2018-10-01T07:11:27.337Z,12.10
2018-10-01T07:13:54.422Z,12.10
2018-10-01T07:16:21.607Z,12.10
2018-10-01T07:18:48.882Z,12.00
2018-10-01T07:21:16.043Z,12.10
2018-10-01T07:23:50.898Z,12.20
2018-10-01T07:26:19.159Z,12.10
2018-10-01T07:28:46.340Z,12.10
2018-10-01T07:31:13.504Z,12.10
2018-10-01T07:33:40.658Z,12.00
2018-10-01T07:36:07.827Z,12.00
2018-10-01T07:38:34.995Z,12.00
2018-10-01T07:41:02.175Z,12.00
2018-10-01T07:43:29.335Z,12.00
2018-10-01T07:45:56.523Z,12.10
2018-10-01T07:48:23.683Z,12.10
2018-10-01T07:50:50.982Z,12.20
2018-10-01T07:53:18.094Z,12.20
2018-10-01T07:55:45.243Z,12.10
2018-10-01T07:58:12.411Z,12.30
2018-10-01T08:00:39.595Z,12.40
2018-10-01T08:03:06.743Z,12.50
2018-10-01T08:05:33.995Z,12.50
2018-10-01T08:08:01.806Z,12.50
2018-10-01T08:10:28.966Z,12.60
2018-10-01T08:12:56.140Z,12.70
2018-10-01T08:15:23.317Z,12.70
2018-10-01T08:17:50.479Z,12.80
2018-10-01T08:20:17.773Z,12.70
2018-10-01T08:22:44.871Z,12.70
2018-10-01T08:25:12.046Z,12.90
2018-10-01T08:27:39.207Z,12.80
2018-10-01T08:30:06.428Z,12.80
2018-10-01T08:32:33.627Z,12.80
2018-10-01T08:35:00.812Z,12.80
2018-10-01T08:37:27.934Z,12.90
2018-10-01T08:39:55.090Z,12.90
2018-10-01T08:42:22.238Z,13.00
2018-10-01T08:44:49.490Z,13.10
2018-10-01T08:47:16.751Z,13.20
2018-10-01T08:49:48.099Z,13.40
2018-10-01T08:52:22.444Z,13.50
2018-10-01T08:54:49.630Z,13.50
2018-10-01T08:57:16.818Z,13.40
2018-10-01T08:59:43.971Z,13.40
2018-10-01T09:02:11.221Z,13.40
2018-10-01T09:04:38.359Z,13.30
2018-10-01T09:07:05.523Z,13.30
2018-10-01T09:09:32.696Z,13.40
2018-10-01T09:11:59.899Z,13.40
2018-10-01T09:14:27.105Z,13.50
2018-10-01T09:16:54.215Z,13.50
2018-10-01T09:19:21.663Z,13.40
2018-10-01T09:21:48.924Z,13.40
2018-10-01T09:24:16.118Z,13.40
2018-10-01T09:26:43.291Z,13.40
2018-10-01T09:29:10.531Z,13.40
2018-10-01T09:31:37.670Z,13.50
2018-10-01T09:34:05.151Z,13.60
2018-10-01T09:36:33.363Z,13.70
2018-10-01T09:39:00.530Z,13.80
2018-10-01T09:41:27.711Z,13.90
2018-10-01T09:43:54.868Z,13.90
2018-10-01T09:46:25.355Z,14.00
2018-10-01T09:48:52.479Z,14.00
2018-10-01T09:51:19.651Z,14.10
2018-10-01T09:53:46.855Z,14.20
2018-10-01T09:56:14.079Z,14.30
2018-10-01T09:58:41.209Z,14.20
2018-10-01T10:01:11.706Z,14.20
2018-10-01T10:03:39.058Z,14.10
2018-10-01T10:06:06.686Z,14.10
2018-10-01T10:08:33.937Z,14.10
2018-10-01T10:11:01.643Z,13.90
2018-10-01T10:13:28.878Z,13.90
2018-10-01T10:15:56.034Z,13.90
2018-10-01T10:18:23.311Z,13.90
2018-10-01T10:20:50.467Z,13.90
2018-10-01T10:23:17.636Z,13.80
2018-10-01T10:25:44.787Z,13.70
2018-10-01T10:28:12.126Z,13.70
2018-10-01T10:30:41.318Z,13.80
2018-10-01T10:33:08.506Z,13.90
2018-10-01T10:35:35.713Z,13.90
2018-10-01T10:38:02.871Z,14.00
2018-10-01T10:40:30.115Z,14.20
2018-10-01T10:42:57.291Z,14.40
2018-10-01T10:45:24.448Z,14.50
2018-10-01T10:47:51.599Z,14.60
2018-10-01T10:50:18.890Z,14.80
2018-10-01T10:52:45.959Z,14.80
2018-10-01T10:55:13.129Z,14.60
2018-10-01T11:00:14.391Z,14.30
2018-10-01T11:02:41.562Z,14.30
2018-10-01T11:05:08.735Z,14.30
2018-10-01T11:07:35.919Z,14.20
2018-10-01T11:10:03.129Z,14.40
2018-10-01T11:15:04.817Z,14.40
2018-10-01T11:17:31.883Z,14.50
2018-10-01T11:19:59.106Z,14.50
2018-10-01T11:22:26.243Z,14.40
2018-10-01T11:24:53.378Z,14.40
2018-10-01T11:27:20.712Z,14.50
2018-10-01T11:29:47.740Z,14.40
2018-10-01T11:32:14.922Z,14.60
2018-10-01T11:34:42.108Z,14.80
2018-10-01T11:37:09.269Z,14.80
2018-10-01T11:39:36.507Z,14.90
2018-10-01T11:42:03.655Z,15.10
2018-10-01T11:44:30.811Z,15.10
2018-10-01T11:46:57.979Z,15.00
2018-10-01T11:49:25.130Z,15.00
2018-10-01T11:51:59.166Z,15.00
2018-10-01T11:54:26.387Z,15.00
2018-10-01T11:56:53.511Z,15.10
2018-10-01T11:59:20.672Z,15.10
2018-10-01T12:01:47.920Z,15.20
2018-10-01T12:04:15.209Z,15.20
2018-10-01T12:06:42.260Z,15.50
2018-10-01T12:09:10.851Z,15.80
2018-10-01T12:11:37.939Z,16.30
2018-10-01T12:14:05.250Z,16.60
2018-10-01T12:16:32.483Z,16.70
2018-10-01T12:18:59.655Z,16.60
2018-10-01T12:21:26.830Z,16.40
2018-10-01T12:23:53.975Z,16.20
2018-10-01T12:26:21.139Z,16.20
2018-10-01T12:28:48.323Z,16.20
2018-10-01T12:31:15.483Z,16.00
2018-10-01T12:33:42.686Z,16.00
2018-10-01T12:36:09.811Z,16.00
2018-10-01T12:38:37.015Z,15.80
2018-10-01T12:41:04.330Z,15.60
2018-10-01T12:43:31.500Z,15.60
2018-10-01T12:45:58.659Z,15.80
2018-10-01T12:48:25.832Z,16.00
2018-10-01T12:50:53.343Z,16.50
2018-10-01T12:53:20.544Z,16.60
2018-10-01T12:55:47.707Z,16.90
2018-10-01T12:58:14.904Z,17.30
2018-10-01T13:00:42.443Z,17.70
2018-10-01T13:03:09.615Z,18.00
2018-10-01T13:05:36.779Z,18.30
2018-10-01T13:08:03.959Z,18.50
2018-10-01T13:10:31.132Z,18.50
2018-10-01T13:12:58.615Z,18.10
2018-10-01T13:15:25.762Z,17.50
2018-10-01T13:17:53.132Z,17.10
2018-10-01T13:20:20.467Z,16.80
2018-10-01T13:22:47.687Z,16.50
2018-10-01T13:25:14.914Z,16.20
2018-10-01T13:27:42.039Z,16.10
2018-10-01T13:30:09.424Z,16.10
2018-10-01T13:32:36.547Z,16.00
2018-10-01T13:35:03.875Z,16.10
2018-10-01T13:37:31.079Z,16.60
2018-10-01T13:39:58.249Z,17.10
2018-10-01T13:42:25.430Z,17.50
2018-10-01T13:44:59.343Z,17.80
2018-10-01T13:47:26.715Z,17.90
2018-10-01T13:49:54.254Z,18.00
2018-10-01T13:52:21.482Z,18.10
2018-10-01T13:54:48.706Z,18.10
2018-10-01T13:57:16.124Z,18.10
2018-10-01T13:59:43.295Z,18.10
2018-10-01T14:02:10.463Z,18.00
2018-10-01T14:04:37.623Z,17.90
2018-10-01T14:07:04.843Z,17.90
2018-10-01T14:09:31.971Z,18.00
2018-10-01T14:11:59.135Z,18.00
2018-10-01T14:14:27.388Z,17.90
2018-10-01T14:16:54.784Z,17.90
2018-10-01T14:19:21.983Z,17.90
2018-10-01T14:21:49.162Z,17.80
2018-10-01T14:24:16.379Z,17.60
2018-10-01T14:26:44.591Z,17.20
2018-10-01T14:29:11.900Z,17.00
2018-10-01T14:31:39.143Z,16.80
2018-10-01T14:34:06.311Z,16.60
2018-10-01T14:36:33.555Z,16.50
2018-10-01T14:39:00.672Z,16.70
2018-10-01T14:41:27.930Z,16.80
2018-10-01T14:43:55.121Z,16.70
2018-10-01T14:46:22.291Z,16.60
2018-10-01T14:48:49.566Z,16.50
2018-10-01T14:51:16.841Z,16.20
2018-10-01T14:53:44.115Z,16.10
2018-10-01T14:56:11.318Z,16.20
2018-10-01T14:58:38.579Z,16.10
2018-10-01T15:01:05.818Z,16.30
2018-10-01T15:03:33.020Z,16.50
2018-10-01T15:06:00.264Z,16.50
2018-10-01T15:08:27.435Z,16.50
2018-10-01T15:10:54.786Z,16.40
2018-10-01T15:13:22.039Z,16.50
2018-10-01T15:15:49.211Z,16.50
2018-10-01T15:18:16.422Z,16.40
2018-10-01T15:20:43.567Z,16.30
2018-10-01T15:23:10.829Z,16.20
2018-10-01T15:25:38.067Z,16.10
2018-10-01T15:28:05.232Z,15.80
2018-10-01T15:30:39.174Z,15.70
2018-10-01T15:33:06.431Z,15.50
2018-10-01T15:35:33.602Z,15.30
2018-10-01T15:38:00.871Z,15.10
2018-10-01T15:40:28.059Z,15.00
2018-10-01T15:42:55.235Z,15.00
2018-10-01T15:45:22.391Z,14.90
2018-10-01T15:47:49.588Z,14.70
2018-10-01T15:50:16.822Z,14.60
2018-10-01T15:52:44.062Z,14.50
2018-10-01T15:55:11.257Z,14.30
2018-10-01T15:57:38.403Z,14.10
2018-10-01T16:00:05.672Z,14.10
2018-10-01T16:02:33.066Z,14.00
2018-10-01T16:05:00.239Z,14.00
2018-10-01T16:07:27.382Z,13.90
2018-10-01T16:09:54.591Z,13.90
2018-10-01T16:12:21.835Z,13.80
2018-10-01T16:14:49.019Z,13.80
2018-10-01T16:17:16.587Z,13.70
2018-10-01T16:19:43.739Z,13.70
2018-10-01T16:22:11.008Z,13.60
2018-10-01T16:24:38.182Z,13.60
2018-10-01T16:27:05.379Z,13.50
2018-10-01T16:29:32.650Z,13.50
2018-10-01T16:31:59.926Z,13.50
2018-10-01T16:34:27.107Z,13.50
2018-10-01T16:36:54.320Z,13.40
2018-10-01T16:39:21.486Z,13.40
2018-10-01T16:41:48.640Z,13.40
2018-10-01T16:44:15.799Z,13.30
2018-10-01T16:46:42.967Z,13.20
2018-10-01T16:49:10.189Z,13.10
2018-10-01T16:51:37.295Z,13.00
2018-10-01T16:54:04.501Z,13.00
2018-10-01T16:56:31.692Z,13.00
2018-10-01T16:58:58.856Z,12.80
2018-10-01T17:01:26.012Z,12.70
2018-10-01T17:03:53.195Z,12.70
2018-10-01T17:06:24.946Z,12.70
2018-10-01T17:08:52.118Z,12.70
2018-10-01T17:11:26.611Z,12.70
2018-10-01T17:13:53.775Z,12.80
2018-10-01T17:16:20.923Z,12.80
2018-10-01T17:18:48.089Z,12.70
2018-10-01T17:21:15.271Z,12.70
2018-10-01T17:23:42.458Z,12.70
2018-10-01T17:26:09.658Z,12.60
2018-10-01T17:28:36.827Z,12.60
2018-10-01T17:31:04.172Z,12.60
2018-10-01T17:33:31.367Z,12.60
2018-10-01T17:35:58.523Z,12.50
2018-10-01T17:38:25.689Z,12.50
2018-10-01T17:40:52.856Z,12.50
2018-10-01T17:43:20.030Z,12.60
2018-10-01T17:45:47.207Z,12.60
2018-10-01T17:48:14.475Z,12.60
2018-10-01T17:50:41.642Z,12.70
2018-10-01T17:53:08.871Z,12.60
2018-10-01T17:55:36.135Z,12.40
2018-10-01T17:58:03.300Z,12.50
2018-10-01T18:00:30.504Z,12.40
2018-10-01T18:02:57.788Z,12.40
2018-10-01T18:05:25.058Z,12.30
2018-10-01T18:07:52.302Z,12.30
2018-10-01T18:10:19.472Z,12.30
2018-10-01T18:12:46.636Z,12.20
2018-10-01T18:15:13.816Z,12.20
2018-10-01T18:17:41.019Z,12.20
2018-10-01T18:20:08.440Z,12.20
2018-10-01T18:22:35.603Z,12.10
2018-10-01T18:25:02.792Z,12.10
2018-10-01T18:27:29.946Z,12.10
2018-10-01T18:29:57.180Z,12.10
2018-10-01T18:32:24.274Z,12.10
2018-10-01T18:34:51.576Z,11.90
2018-10-01T18:37:18.743Z,11.90
2018-10-01T18:39:45.931Z,11.90
2018-10-01T18:42:13.116Z,12.00
2018-10-01T18:44:40.351Z,12.00
2018-10-01T18:47:07.500Z,12.00
2018-10-01T18:49:34.667Z,11.90
2018-10-01T18:52:01.875Z,11.90
2018-10-01T18:54:29.059Z,12.00
2018-10-01T18:56:56.323Z,12.00
2018-10-01T18:59:23.502Z,12.00
2018-10-01T19:01:50.671Z,12.00
2018-10-01T19:04:17.867Z,11.90
2018-10-01T19:06:45.030Z,11.80
2018-10-01T19:09:12.335Z,11.70
2018-10-01T19:11:39.930Z,11.70
2018-10-01T19:14:07.390Z,11.50
2018-10-01T19:16:41.520Z,11.40
2018-10-01T19:19:08.735Z,11.30
2018-10-01T19:21:36.095Z,11.30
2018-10-01T19:24:03.337Z,11.20
2018-10-01T19:26:30.495Z,11.30
2018-10-01T19:28:57.651Z,11.30
2018-10-01T19:31:25.085Z,11.20
2018-10-01T19:33:52.451Z,11.10
2018-10-01T19:36:26.491Z,11.20
2018-10-01T19:38:53.740Z,11.00
2018-10-01T19:41:20.935Z,10.90
2018-10-01T19:43:48.090Z,10.80
2018-10-01T19:46:15.272Z,10.90
2018-10-01T19:48:42.482Z,10.90
2018-10-01T19:51:09.956Z,10.90
2018-10-01T19:53:37.654Z,11.10
2018-10-01T19:56:05.216Z,11.20
2018-10-01T19:58:32.555Z,11.10
2018-10-01T20:00:59.879Z,11.20
2018-10-01T20:03:27.277Z,11.30
2018-10-01T20:05:54.339Z,11.40
2018-10-01T20:08:21.599Z,11.50
2018-10-01T20:10:48.826Z,11.40
2018-10-01T20:13:15.932Z,11.40
2018-10-01T20:15:43.192Z,11.40
2018-10-01T20:18:10.791Z,11.50
2018-10-01T20:20:38.059Z,11.50
2018-10-01T20:23:05.264Z,11.40
2018-10-01T20:25:32.424Z,11.30
2018-10-01T20:27:59.644Z,11.10
2018-10-01T20:30:26.819Z,11.00
2018-10-01T20:32:53.951Z,10.90
2018-10-01T20:35:21.289Z,10.90
2018-10-01T20:37:48.380Z,10.90
2018-10-01T20:40:15.556Z,10.90
2018-10-01T20:42:42.740Z,10.80
2018-10-01T20:45:09.977Z,10.80
2018-10-01T20:47:37.143Z,10.70
2018-10-01T20:50:04.490Z,10.70
2018-10-01T20:52:31.641Z,10.80
2018-10-01T20:54:58.791Z,10.80
2018-10-01T20:57:25.960Z,10.90
2018-10-01T20:59:53.147Z,10.80
2018-10-01T21:02:20.304Z,10.80
2018-10-01T21:04:47.606Z,10.80
2018-10-01T21:07:14.758Z,10.80
2018-10-01T21:09:41.930Z,10.80
2018-10-01T21:12:09.115Z,10.80
2018-10-01T21:14:36.290Z,10.90
2018-10-01T21:17:03.476Z,10.80
2018-10-01T21:19:30.638Z,10.80
2018-10-01T21:21:57.807Z,10.90
2018-10-01T21:24:24.985Z,10.80
2018-10-01T21:26:52.151Z,10.80
2018-10-01T21:29:19.318Z,10.90
2018-10-01T21:31:46.507Z,11.00
2018-10-01T21:34:13.676Z,11.00
2018-10-01T21:36:40.880Z,11.00
2018-10-01T21:39:09.927Z,11.00
2018-10-01T21:41:37.107Z,11.00
2018-10-01T21:44:04.286Z,10.80
2018-10-01T21:49:05.475Z,10.70
2018-10-01T21:51:32.642Z,10.60
2018-10-01T21:53:59.815Z,10.60
2018-10-01T21:56:26.995Z,10.50
2018-10-01T21:58:54.160Z,10.40
2018-10-01T22:01:27.254Z,10.40
2018-10-01T22:03:54.435Z,10.30
2018-10-01T22:06:21.619Z,10.30
2018-10-01T22:08:48.786Z,10.20
2018-10-01T22:11:15.955Z,10.30
2018-10-01T22:13:43.107Z,10.30
2018-10-01T22:16:10.290Z,10.20
2018-10-01T22:18:37.456Z,10.20
2018-10-01T22:21:04.780Z,10.10
2018-10-01T22:23:31.962Z,10.00
2018-10-01T22:25:59.139Z,10.00
2018-10-01T22:28:26.311Z,9.90
2018-10-01T22:33:27.639Z,9.90
2018-10-01T22:35:54.815Z,9.90
2018-10-01T22:38:21.995Z,9.90
2018-10-01T22:40:49.215Z,9.90
2018-10-01T22:43:16.411Z,9.80
2018-10-01T22:45:43.602Z,9.70
2018-10-01T22:48:10.803Z,9.70
2018-10-01T22:50:37.999Z,9.50
2018-10-01T22:53:05.197Z,9.50
2018-10-01T22:55:32.366Z,9.30
2018-10-01T22:57:59.547Z,9.30
2018-10-01T23:03:01.295Z,9.40
2018-10-01T23:05:28.482Z,9.40
2018-10-01T23:07:55.735Z,9.50
2018-10-01T23:10:22.903Z,9.50
2018-10-01T23:12:50.074Z,9.50
2018-10-01T23:15:17.454Z,9.40
2018-10-01T23:17:44.636Z,9.50
2018-10-01T23:20:11.838Z,9.50
2018-10-01T23:22:39.015Z,9.50
2018-10-01T23:25:06.198Z,9.40
2018-10-01T23:27:33.374Z,9.30
2018-10-01T23:30:00.530Z,9.20
2018-10-01T23:32:27.718Z,9.10
2018-10-01T23:34:54.960Z,9.10
2018-10-01T23:37:22.152Z,9.10
2018-10-01T23:39:49.334Z,9.10
2018-10-01T23:42:16.523Z,9.10
2018-10-01T23:44:43.691Z,9.10
2018-10-01T23:47:10.915Z,9.20
2018-10-01T23:49:38.091Z,9.30
2018-10-01T23:52:05.286Z,9.40
2018-10-01T23:54:32.447Z,9.40
2018-10-01T23:56:59.679Z,9.30
2018-10-01T23:59:26.871Z,9.40
